Arcadia — SY7849 — position and weather

sailwx.info

Track history (hours):
 
Tides and Currents Weather Stations Pressure Air Temp Water Temp Dewpoint Dewpoint Depression Visibility Wind Speed Wind Dir Waves Ship Positions

Arcadia

Last reported at 2017-Aug-17 15:13 UTC. Time now 2017-Aug-18 03:04 UTC.
Position N 37°43' E 023°17'.

Length 76 m; draft 4.8 m.

Type: Tanker. MMSI: 240560000.

Date/timePositionNaut miles runAvg speedWind from/ knotsBaromVisibWave heightAir tempDewpointWater temp
2017-Aug-17 15:13N 37°43' E 023°17'2 8.7
2017-Aug-17 15:00N 37°41' E 023°18'5 8.3
2017-Aug-17 14:22N 37°39' E 023°24'4 9.1
2017-Aug-17 13:57N 37°38' E 023°29'4 9.3
2017-Aug-17 13:30N 37°37' E 023°33'4 7.6
2017-Aug-17 13:01N 37°33' E 023°35'  
2017-Aug-14 09:10N 37°38' E 023°30'11 0.5
2017-Aug-13 13:09N 37°42' E 023°17'1 8.4
2017-Aug-13 12:59N 37°41' E 023°17'6 7.6
2017-Aug-13 12:10N 37°39' E 023°25'4 8.7
2017-Aug-13 11:42N 37°38' E 023°30'3 8.7
2017-Aug-13 11:19N 37°37' E 023°34'3 8.5
2017-Aug-13 11:00N 37°34' E 023°35'  
2017-Aug-08 00:25N 37°40' E 023°21'  
Track history (hours):
 
Tides and Currents Weather Stations Pressure Air Temp Water Temp Dewpoint Dewpoint Depression Visibility Wind Speed Wind Dir Waves Ship Positions

Arcadia

Last reported at 2017-Aug-17 15:13 UTC. Time now 2017-Aug-18 03:04 UTC.
Position N 37°43' E 023°17'.

Length 76 m; draft 4.8 m.

Type: Tanker. MMSI: 240560000.

Date/timePositionNaut miles runAvg speedWind from/ knotsBaromVisibWave heightAir tempDewpointWater temp
2017-Aug-17 15:13N 37°43' E 023°17'2 8.7
2017-Aug-17 15:00N 37°41' E 023°18'5 8.3
2017-Aug-17 14:22N 37°39' E 023°24'4 9.1
2017-Aug-17 13:57N 37°38' E 023°29'4 9.3
2017-Aug-17 13:30N 37°37' E 023°33'4 7.6
2017-Aug-17 13:01N 37°33' E 023°35'  
2017-Aug-14 09:10N 37°38' E 023°30'11 0.5
2017-Aug-13 13:09N 37°42' E 023°17'1 8.4
2017-Aug-13 12:59N 37°41' E 023°17'6 7.6
2017-Aug-13 12:10N 37°39' E 023°25'4 8.7
2017-Aug-13 11:42N 37°38' E 023°30'3 8.7
2017-Aug-13 11:19N 37°37' E 023°34'3 8.5
2017-Aug-13 11:00N 37°34' E 023°35'  
2017-Aug-08 00:25N 37°40' E 023°21'  

Dump ship's entire track history